DLH4HK EDDF-EKCH
Flight info
| Callsign | DLH4HK |
|---|---|
| Flight time | N/A |
| Altitude | 35000 |
| Route | MARUN6E/07C MARUN Y150 TOLGI DCT SAS DCT MAKEL N851 GESKA Z711 MONAK |
| Aircraft | A320/M-SDE3FGHIRWY/LB1 |
Departure
| Time | N/A |
|---|---|
| Airport | Frankfurt Main Airport (EDDF) |
Arrival
| Time | 2026-05-01 08:41 |
|---|---|
| Airport | Copenhagen Kastrup Airport (EKCH) |
| Time | Latitude | Longitude | Altitude | Speed | Heading |
|---|---|---|---|---|---|
| 2026-05-01 08:06 | 53.17569 | 10.66295 | 35429 ft | 435 kts | 27° |
| 2026-05-01 08:07 | 53.28323 | 10.75591 | 35436 ft | 435 kts | 27° |
| 2026-05-01 08:08 | 53.36388 | 10.82613 | 35429 ft | 436 kts | 27° |
| 2026-05-01 08:09 | 53.47144 | 10.92007 | 35440 ft | 436 kts | 27° |
| 2026-05-01 08:09 | 53.52498 | 10.96695 | 35440 ft | 436 kts | 28° |
| 2026-05-01 08:10 | 53.63255 | 11.06185 | 35451 ft | 437 kts | 28° |
| 2026-05-01 08:11 | 53.74023 | 11.15731 | 35459 ft | 437 kts | 28° |
| 2026-05-01 08:12 | 53.82088 | 11.22912 | 35456 ft | 436 kts | 28° |
| 2026-05-01 08:13 | 53.90141 | 11.30118 | 35452 ft | 436 kts | 28° |
| 2026-05-01 08:13 | 53.98178 | 11.37342 | 35451 ft | 436 kts | 28° |
| 2026-05-01 08:14 | 54.03538 | 11.42174 | 35447 ft | 436 kts | 28° |
| 2026-05-01 08:14 | 54.08850 | 11.46987 | 35445 ft | 435 kts | 28° |
| 2026-05-01 08:15 | 54.16883 | 11.54273 | 34886 ft | 436 kts | 28° |
| 2026-05-01 08:15 | 54.19562 | 11.56713 | 34640 ft | 436 kts | 28° |
| 2026-05-01 08:16 | 54.22231 | 11.59147 | 33796 ft | 440 kts | 28° |
| 2026-05-01 08:16 | 54.24945 | 11.61621 | 32888 ft | 443 kts | 28° |
| 2026-05-01 08:16 | 54.27650 | 11.64098 | 32347 ft | 437 kts | 29° |
| 2026-05-01 08:16 | 54.30318 | 11.66549 | 31767 ft | 433 kts | 29° |
| 2026-05-01 08:17 | 54.32956 | 11.68977 | 31185 ft | 429 kts | 29° |
| 2026-05-01 08:17 | 54.35580 | 11.71393 | 30607 ft | 426 kts | 29° |
| 2026-05-01 08:17 | 54.38181 | 11.73780 | 29981 ft | 422 kts | 29° |
| 2026-05-01 08:17 | 54.40753 | 11.76144 | 29426 ft | 417 kts | 29° |
| 2026-05-01 08:18 | 54.43267 | 11.78457 | 28882 ft | 412 kts | 29° |
| 2026-05-01 08:18 | 54.48323 | 11.82889 | 27781 ft | 404 kts | 26° |
| 2026-05-01 08:19 | 54.53408 | 11.86820 | 26713 ft | 397 kts | 25° |
| 2026-05-01 08:19 | 54.55927 | 11.88725 | 26194 ft | 393 kts | 25° |
| 2026-05-01 08:19 | 54.58414 | 11.90630 | 25694 ft | 389 kts | 25° |
| 2026-05-01 08:19 | 54.60869 | 11.92544 | 25196 ft | 385 kts | 27° |
| 2026-05-01 08:20 | 54.63171 | 11.94850 | 24714 ft | 380 kts | 35° |
| 2026-05-01 08:20 | 54.65362 | 11.97388 | 24250 ft | 376 kts | 35° |
| 2026-05-01 08:20 | 54.67525 | 11.99892 | 23750 ft | 373 kts | 35° |
| 2026-05-01 08:20 | 54.69669 | 12.02372 | 23289 ft | 368 kts | 35° |
| 2026-05-01 08:21 | 54.71782 | 12.04814 | 22851 ft | 363 kts | 34° |
| 2026-05-01 08:21 | 54.73872 | 12.07233 | 22415 ft | 359 kts | 34° |
| 2026-05-01 08:21 | 54.75942 | 12.09629 | 21971 ft | 356 kts | 34° |
| 2026-05-01 08:21 | 54.77989 | 12.12003 | 21532 ft | 353 kts | 34° |
| 2026-05-01 08:22 | 54.80020 | 12.14363 | 21091 ft | 351 kts | 34° |
| 2026-05-01 08:22 | 54.82042 | 12.16715 | 20643 ft | 349 kts | 34° |
| 2026-05-01 08:22 | 54.84050 | 12.19056 | 20169 ft | 347 kts | 34° |
| 2026-05-01 08:22 | 54.86056 | 12.21400 | 19723 ft | 346 kts | 34° |
| 2026-05-01 08:23 | 54.88050 | 12.23735 | 19270 ft | 346 kts | 34° |
| 2026-05-01 08:23 | 54.90038 | 12.26070 | 18812 ft | 345 kts | 34° |
| 2026-05-01 08:23 | 54.92032 | 12.28405 | 18322 ft | 344 kts | 34° |
| 2026-05-01 08:23 | 54.94011 | 12.30719 | 17864 ft | 342 kts | 34° |
| 2026-05-01 08:24 | 54.95982 | 12.33029 | 17412 ft | 340 kts | 34° |
| 2026-05-01 08:24 | 54.97938 | 12.35320 | 16970 ft | 338 kts | 34° |
| 2026-05-01 08:24 | 54.99866 | 12.37578 | 16536 ft | 337 kts | 34° |
| 2026-05-01 08:24 | 55.01807 | 12.39851 | 16102 ft | 336 kts | 34° |
| 2026-05-01 08:25 | 55.03747 | 12.42119 | 15672 ft | 335 kts | 34° |
| 2026-05-01 08:25 | 55.05680 | 12.44375 | 15230 ft | 334 kts | 34° |
| 2026-05-01 08:25 | 55.07613 | 12.46630 | 14804 ft | 334 kts | 34° |
| 2026-05-01 08:25 | 55.09541 | 12.48878 | 14372 ft | 333 kts | 34° |
| 2026-05-01 08:26 | 55.11469 | 12.51131 | 13899 ft | 333 kts | 34° |
| 2026-05-01 08:26 | 55.13393 | 12.53381 | 13455 ft | 331 kts | 34° |
| 2026-05-01 08:26 | 55.15302 | 12.55624 | 13007 ft | 330 kts | 34° |
| 2026-05-01 08:26 | 55.17201 | 12.57860 | 12574 ft | 329 kts | 35° |
| 2026-05-01 08:27 | 55.19073 | 12.60074 | 12375 ft | 319 kts | 34° |
| 2026-05-01 08:27 | 55.20882 | 12.62215 | 12245 ft | 308 kts | 34° |
| 2026-05-01 08:27 | 55.22647 | 12.64262 | 12040 ft | 301 kts | 31° |
| 2026-05-01 08:27 | 55.24549 | 12.65722 | 11803 ft | 298 kts | 18° |
| 2026-05-01 08:28 | 55.26520 | 12.66832 | 11452 ft | 297 kts | 19° |
| 2026-05-01 08:28 | 55.28486 | 12.67948 | 11057 ft | 297 kts | 19° |
| 2026-05-01 08:28 | 55.30455 | 12.69070 | 10671 ft | 297 kts | 19° |
| 2026-05-01 08:28 | 55.32413 | 12.70188 | 10294 ft | 297 kts | 19° |
| 2026-05-01 08:29 | 55.34364 | 12.71299 | 9973 ft | 293 kts | 19° |
| 2026-05-01 08:29 | 55.36282 | 12.72391 | 9589 ft | 291 kts | 19° |
| 2026-05-01 08:29 | 55.38193 | 12.73480 | 9292 ft | 287 kts | 19° |
| 2026-05-01 08:29 | 55.40084 | 12.74561 | 8924 ft | 284 kts | 19° |
| 2026-05-01 08:30 | 55.41959 | 12.75640 | 8545 ft | 283 kts | 19° |
| 2026-05-01 08:30 | 55.43825 | 12.76717 | 8158 ft | 282 kts | 19° |
| 2026-05-01 08:30 | 55.45685 | 12.77790 | 7775 ft | 280 kts | 19° |
| 2026-05-01 08:30 | 55.47537 | 12.78857 | 7393 ft | 279 kts | 19° |
| 2026-05-01 08:31 | 55.49379 | 12.79917 | 7020 ft | 278 kts | 18° |
| 2026-05-01 08:31 | 55.51211 | 12.80970 | 6638 ft | 276 kts | 18° |
| 2026-05-01 08:31 | 55.53036 | 12.82022 | 6231 ft | 275 kts | 18° |
| 2026-05-01 08:31 | 55.54852 | 12.83070 | 5847 ft | 273 kts | 17° |
| 2026-05-01 08:32 | 55.56609 | 12.84131 | 5714 ft | 261 kts | 20° |
| 2026-05-01 08:32 | 55.58262 | 12.85274 | 5588 ft | 250 kts | 21° |
| 2026-05-01 08:32 | 55.59839 | 12.86424 | 5397 ft | 242 kts | 21° |
| 2026-05-01 08:32 | 55.61382 | 12.87562 | 5090 ft | 239 kts | 21° |
| 2026-05-01 08:33 | 55.62853 | 12.88906 | 4785 ft | 238 kts | 32° |
| 2026-05-01 08:33 | 55.64132 | 12.90765 | 4458 ft | 237 kts | 40° |
| 2026-05-01 08:33 | 55.65359 | 12.92712 | 4146 ft | 236 kts | 39° |
| 2026-05-01 08:33 | 55.66563 | 12.94610 | 3852 ft | 234 kts | 39° |
| 2026-05-01 08:34 | 55.67773 | 12.96528 | 3577 ft | 232 kts | 39° |
| 2026-05-01 08:34 | 55.68969 | 12.98433 | 3328 ft | 230 kts | 39° |
| 2026-05-01 08:34 | 55.70150 | 13.00325 | 3202 ft | 229 kts | 39° |
| 2026-05-01 08:34 | 55.71325 | 13.02222 | 3094 ft | 228 kts | 39° |
| 2026-05-01 08:35 | 55.72518 | 13.04080 | 2995 ft | 226 kts | 31° |
| 2026-05-01 08:35 | 55.73960 | 13.04959 | 3005 ft | 220 kts | 358° |
| 2026-05-01 08:35 | 55.75403 | 13.04247 | 3004 ft | 218 kts | 325° |
| 2026-05-01 08:35 | 55.76460 | 13.02324 | 3008 ft | 219 kts | 308° |
| 2026-05-01 08:36 | 55.77362 | 13.00134 | 3010 ft | 220 kts | 306° |
| 2026-05-01 08:36 | 55.78150 | 12.97802 | 3004 ft | 221 kts | 292° |
| 2026-05-01 08:36 | 55.78458 | 12.95140 | 3012 ft | 222 kts | 272° |
| 2026-05-01 08:36 | 55.78213 | 12.92453 | 2999 ft | 219 kts | 251° |
| 2026-05-01 08:37 | 55.77466 | 12.90137 | 3003 ft | 221 kts | 231° |
| 2026-05-01 08:37 | 55.76342 | 12.88264 | 3005 ft | 222 kts | 224° |
| 2026-05-01 08:37 | 55.75179 | 12.86449 | 3011 ft | 222 kts | 224° |
| 2026-05-01 08:37 | 55.74052 | 12.84689 | 2970 ft | 211 kts | 224° |
| 2026-05-01 08:38 | 55.72963 | 12.82987 | 2787 ft | 205 kts | 224° |
| 2026-05-01 08:38 | 55.71916 | 12.81352 | 2514 ft | 195 kts | 225° |
| 2026-05-01 08:38 | 55.70931 | 12.79816 | 2255 ft | 183 kts | 225° |
| 2026-05-01 08:38 | 55.70003 | 12.78369 | 2013 ft | 173 kts | 225° |
| 2026-05-01 08:39 | 55.69125 | 12.77002 | 1792 ft | 162 kts | 225° |
| 2026-05-01 08:39 | 55.68313 | 12.75738 | 1577 ft | 149 kts | 225° |
| 2026-05-01 08:39 | 55.67554 | 12.74555 | 1387 ft | 142 kts | 225° |
| 2026-05-01 08:39 | 55.66828 | 12.73425 | 1193 ft | 139 kts | 225° |
| 2026-05-01 08:40 | 55.65389 | 12.71173 | 814 ft | 138 kts | 224° |
| 2026-05-01 08:40 | 55.64664 | 12.70054 | 614 ft | 138 kts | 222° |
| 2026-05-01 08:40 | 55.63938 | 12.68936 | 414 ft | 139 kts | 221° |
| 2026-05-01 08:41 | 55.63219 | 12.67811 | 239 ft | 139 kts | 220° |
| 2026-05-01 08:41 | 55.62487 | 12.66670 | 59 ft | 140 kts | 220° |
| 2026-05-01 08:41 | 55.61817 | 12.65637 | 27 ft | 106 kts | 221° |
| 2026-05-01 08:41 | 55.61401 | 12.64997 | 25 ft | 43 kts | 221° |
| 2026-05-01 08:42 | 55.61276 | 12.64694 | 25 ft | 16 kts | 245° |
| 2026-05-01 08:42 | 55.61236 | 12.64505 | 23 ft | 16 kts | 251° |
| 2026-05-01 08:42 | 55.61202 | 12.64329 | 26 ft | 14 kts | 251° |
| 2026-05-01 08:42 | 55.61198 | 12.64169 | 25 ft | 13 kts | 297° |
| 2026-05-01 08:43 | 55.61267 | 12.64108 | 24 ft | 11 kts | 7° |
| 2026-05-01 08:43 | 55.61329 | 12.64166 | 24 ft | 9 kts | 32° |
| 2026-05-01 08:43 | 55.61380 | 12.64224 | 26 ft | 8 kts | 33° |
| 2026-05-01 08:43 | 55.61425 | 12.64276 | 24 ft | 7 kts | 33° |
| 2026-05-01 08:44 | 55.61453 | 12.64309 | 24 ft | 10 kts | 33° |
| 2026-05-01 08:44 | 55.61506 | 12.64370 | 25 ft | 16 kts | 33° |
| 2026-05-01 08:44 | 55.61618 | 12.64498 | 24 ft | 21 kts | 33° |
| 2026-05-01 08:44 | 55.61743 | 12.64643 | 26 ft | 23 kts | 33° |
| 2026-05-01 08:45 | 55.61879 | 12.64799 | 24 ft | 24 kts | 33° |
| 2026-05-01 08:45 | 55.62007 | 12.64946 | 24 ft | 21 kts | 33° |
| 2026-05-01 08:45 | 55.62120 | 12.65075 | 26 ft | 18 kts | 33° |
| 2026-05-01 08:45 | 55.62178 | 12.65142 | 26 ft | 0 kts | 33° |
| 2026-05-01 08:48 | 55.62191 | 12.65157 | 25 ft | 8 kts | 33° |
| 2026-05-01 08:49 | 55.62259 | 12.65125 | 24 ft | 13 kts | 308° |
| 2026-05-01 08:49 | 55.62307 | 12.64995 | 26 ft | 12 kts | 303° |
| 2026-05-01 08:49 | 55.62352 | 12.64876 | 25 ft | 12 kts | 303° |
| 2026-05-01 08:49 | 55.62408 | 12.64722 | 26 ft | 15 kts | 303° |
| 2026-05-01 08:50 | 55.62463 | 12.64573 | 24 ft | 14 kts | 303° |
| 2026-05-01 08:50 | 55.62525 | 12.64406 | 26 ft | 18 kts | 303° |
| 2026-05-01 08:50 | 55.62591 | 12.64229 | 24 ft | 16 kts | 303° |
| 2026-05-01 08:50 | 55.62648 | 12.64076 | 24 ft | 12 kts | 303° |
| 2026-05-01 08:51 | 55.62690 | 12.63989 | 24 ft | 7 kts | 353° |
| 2026-05-01 08:51 | 55.62732 | 12.64026 | 25 ft | 5 kts | 33° |
| 2026-05-01 08:51 | 55.62746 | 12.64041 | 24 ft | 0 kts | 33° |